Time;durP1;ratioP1;P1;durP2;ratioP2;P2;SDS_P1;SDS_P2;PMS_P1;PMS_P2;Temp;Humidity;BMP_temperature;BMP_pressure;BME280_temperature;BME280_humidity;BME280_pressure;Samples;Min_cycle;Max_cycle;Signal;HPM_P1;HPM_P2
2022/08/04 00:02:07;;;;;;;10.98;2.38;;;19.50;99.90;;;;;;5044868;28;20056;-71
2022/08/04 00:04:45;;;;;;;;;;;19.50;99.90;;;;;;5059189;28;20175;-71
2022/08/04 00:07:23;;;;;;;9.13;2.80;;;19.50;99.90;;;;;;5064654;28;19943;-71
2022/08/04 00:09:58;;;;;;;8.65;2.28;;;19.40;99.90;;;;;;5064689;28;20489;-71
2022/08/04 00:12:27;;;;;;;10.40;2.47;;;19.40;99.90;;;;;;5046865;28;20049;-71
2022/08/04 00:14:57;;;;;;;9.73;2.47;;;19.40;99.90;;;;;;5064022;28;20045;-71
2022/08/04 00:17:29;;;;;;;10.15;2.25;;;19.30;99.90;;;;;;5062035;28;20064;-71
2022/08/04 00:20:02;;;;;;;9.77;2.35;;;19.30;99.90;;;;;;5064033;28;20339;-71
2022/08/04 00:22:29;;;;;;;12.88;2.53;;;19.30;99.90;;;;;;5043646;28;20040;-71
2022/08/04 00:24:56;;;;;;;11.88;2.70;;;19.30;99.90;;;;;;5061146;28;20558;-71
2022/08/04 00:27:22;;;;;;;10.88;2.33;;;19.30;99.90;;;;;;5071252;28;20072;-71
2022/08/04 00:29:48;;;;;;;10.90;2.97;;;19.30;99.90;;;;;;5063734;28;20493;-71
2022/08/04 00:32:16;;;;;;;11.63;2.83;;;19.20;99.90;;;;;;5064815;28;20082;-72
2022/08/04 00:34:47;;;;;;;8.98;2.42;;;19.20;99.90;;;;;;5063683;28;20472;-71
2022/08/04 00:37:13;;;;;;;10.67;2.60;;;19.20;99.90;;;;;;5059631;28;20048;-71
2022/08/04 00:39:40;;;;;;;12.05;2.75;;;19.20;99.90;;;;;;5062634;28;20076;-71
2022/08/04 00:42:21;;;;;;;11.55;3.28;;;19.30;99.90;;;;;;5065936;28;20521;-71
2022/08/04 00:45:13;;;;;;;9.77;2.75;;;19.30;99.90;;;;;;5055216;28;20044;-71
2022/08/04 00:48:01;;;;;;;10.88;2.92;;;19.30;99.90;;;;;;5064892;28;20044;-71
2022/08/04 00:50:41;;;;;;;11.38;2.70;;;19.30;99.90;;;;;;5052688;28;20060;-71
2022/08/04 00:53:27;;;;;;;9.57;2.70;;;19.40;99.90;;;;;;5052036;28;20048;-71
2022/08/04 00:56:24;;;;;;;10.05;2.80;;;19.40;99.90;;;;;;5057263;28;20114;-71
2022/08/04 00:59:03;;;;;;;8.98;2.50;;;19.40;99.90;;;;;;5053400;28;20066;-70
2022/08/04 01:02:00;;;;;;;11.98;2.92;;;19.40;99.90;;;;;;5062239;28;20117;-71
2022/08/04 01:04:48;;;;;;;11.45;3.08;;;19.50;99.90;;;;;;5058692;28;20489;-71
2022/08/04 01:07:45;;;;;;;11.57;3.30;;;19.50;99.90;;;;;;5041085;28;20627;-71
2022/08/04 01:10:23;;;;;;;12.90;3.03;;;19.60;99.90;;;;;;5047005;28;20489;-72
2022/08/04 01:13:11;;;;;;;13.63;2.92;;;19.60;99.90;;;;;;5059391;28;20071;-71
2022/08/04 01:15:45;;;;;;;8.57;2.40;;;19.60;99.90;;;;;;5055912;28;20480;-71
2022/08/04 01:18:24;;;;;;;8.48;2.70;;;19.60;99.90;;;;;;5043673;28;20093;-71
2022/08/04 01:21:29;;;;;;;12.80;2.78;;;19.60;99.90;;;;;;5063187;28;20044;-71
2022/08/04 01:24:20;;;;;;;10.55;3.55;;;19.60;99.90;;;;;;5056096;28;20210;-71
2022/08/04 01:27:01;;;;;;;9.38;2.75;;;19.60;99.90;;;;;;5062668;28;20614;-71
2022/08/04 01:29:32;;;;;;;9.57;2.80;;;19.70;99.90;;;;;;5049534;28;20048;-71
2022/08/04 01:32:06;;;;;;;10.52;2.75;;;19.60;99.90;;;;;;5047289;28;20047;-72
2022/08/04 01:35:04;;;;;;;8.93;3.00;;;19.60;99.90;;;;;;5050372;28;20049;-71
2022/08/04 01:38:03;;;;;;;12.25;3.63;;;19.70;99.90;;;;;;5047814;28;20041;-71
2022/08/04 01:40:30;;;;;;;10.70;3.33;;;19.60;99.90;;;;;;5049038;28;20238;-71
2022/08/04 01:42:58;;;;;;;8.05;2.72;;;19.60;99.90;;;;;;5034641;28;20471;-71
2022/08/04 01:45:24;;;;;;;8.73;2.92;;;19.60;99.90;;;;;;5035972;28;20049;-71
2022/08/04 01:47:55;;;;;;;13.60;3.17;;;19.60;99.90;;;;;;5033618;28;20048;-71
2022/08/04 01:50:22;;;;;;;11.17;3.20;;;19.60;99.90;;;;;;5035520;28;20045;-71
2022/08/04 01:52:52;;;;;;;11.02;3.20;;;19.60;99.90;;;;;;5053310;28;20151;-71
2022/08/04 01:55:18;;;;;;;10.63;3.22;;;19.60;99.90;;;;;;5034072;28;20121;-71
2022/08/04 01:57:45;;;;;;;10.15;3.08;;;19.50;99.90;;;;;;5052511;28;20056;-72
2022/08/04 02:00:21;;;;;;;12.30;3.55;;;19.60;99.90;;;;;;5052493;28;20787;-71
2022/08/04 02:02:49;;;;;;;10.45;3.50;;;19.50;99.90;;;;;;5047024;28;20049;-71
2022/08/04 02:05:17;;;;;;;10.10;3.15;;;19.60;99.90;;;;;;5046391;28;20151;-71
2022/08/04 02:07:45;;;;;;;13.45;3.25;;;19.60;99.90;;;;;;5041464;28;20378;-71
2022/08/04 02:10:22;;;;;;;10.20;3.58;;;19.50;99.90;;;;;;5032847;28;20387;-71
2022/08/04 02:12:54;;;;;;;12.43;3.55;;;19.50;99.90;;;;;;5050837;28;20052;-71
2022/08/04 02:15:30;;;;;;;8.57;3.22;;;19.60;99.90;;;;;;5062087;28;20120;-71
2022/08/04 02:18:08;;;;;;;7.60;3.17;;;19.60;99.90;;;;;;5051029;28;20037;-71
2022/08/04 02:20:37;;;;;;;14.73;4.05;;;19.60;99.90;;;;;;5034906;28;20508;-71
2022/08/04 02:23:05;;;;;;;9.43;3.08;;;19.50;99.90;;;;;;5062771;28;20090;-71
2022/08/04 02:25:38;;;;;;;12.32;3.72;;;19.50;99.90;;;;;;5050400;28;20110;-71
2022/08/04 02:28:12;;;;;;;10.50;4.15;;;19.50;99.90;;;;;;5051233;28;20446;-71
2022/08/04 02:31:02;;;;;;;7.95;3.65;;;19.50;99.90;;;;;;5053819;28;20339;-71
2022/08/04 02:33:39;;;;;;;13.45;3.90;;;19.50;99.90;;;;;;5054102;28;20339;-72
2022/08/04 02:36:08;;;;;;;12.98;4.18;;;19.50;99.90;;;;;;5051389;28;20509;-71
2022/08/04 02:38:40;;;;;;;15.20;4.30;;;19.50;99.90;;;;;;5036322;28;20132;-71
2022/08/04 02:41:09;;;;;;;9.30;3.88;;;19.40;99.90;;;;;;5051774;28;20326;-71
2022/08/04 02:43:37;;;;;;;12.88;3.67;;;19.30;99.90;;;;;;5053887;28;20045;-71
2022/08/04 02:46:05;;;;;;;14.13;4.43;;;19.50;99.90;;;;;;5051669;28;20519;-74
2022/08/04 02:48:33;;;;;;;11.45;3.75;;;19.40;99.90;;;;;;5054311;28;20053;-73
2022/08/04 02:51:02;;;;;;;10.30;4.13;;;19.40;99.90;;;;;;5055076;28;20049;-75
2022/08/04 02:53:29;;;;;;;10.52;4.30;;;19.50;99.90;;;;;;5067072;28;20041;-74
2022/08/04 02:55:57;;;;;;;13.73;4.35;;;19.50;99.90;;;;;;5051140;28;20036;-74
2022/08/04 02:58:24;;;;;;;10.02;3.60;;;19.40;99.90;;;;;;5052888;28;20432;-74
2022/08/04 03:00:51;;;;;;;10.65;3.78;;;19.50;99.90;;;;;;5051854;28;20537;-74
2022/08/04 03:03:39;;;;;;;13.68;4.38;;;19.40;99.90;;;;;;5051753;28;20127;-74
2022/08/04 03:06:11;;;;;;;9.85;3.78;;;19.40;99.90;;;;;;5051350;28;20502;-73
2022/08/04 03:09:07;;;;;;;13.63;4.30;;;19.40;99.90;;;;;;5064084;28;20067;-74
2022/08/04 03:12:26;;;;;;;12.25;3.60;;;19.30;99.90;;;;;;5053314;28;20064;-74
2022/08/04 03:15:03;;;;;;;13.10;4.50;;;19.30;99.90;;;;;;5023930;28;20099;-74
2022/08/04 03:17:55;;;;;;;12.52;3.60;;;19.30;99.90;;;;;;5047005;28;20072;-74
2022/08/04 03:20:50;;;;;;;10.80;4.05;;;19.30;99.90;;;;;;5018133;28;20045;-74
2022/08/04 03:23:25;;;;;;;9.10;3.78;;;19.30;99.90;;;;;;5064088;28;20109;-74
2022/08/04 03:26:26;;;;;;;12.15;3.38;;;19.20;99.90;;;;;;5049889;28;20163;-75
2022/08/04 03:28:52;;;;;;;14.57;3.67;;;19.20;99.90;;;;;;5043558;28;20060;-74
2022/08/04 03:32:08;;;;;;;10.48;3.55;;;19.20;99.90;;;;;;5035309;28;20053;-74
2022/08/04 03:35:08;;;;;;;13.88;4.03;;;19.10;99.90;;;;;;5001117;28;20155;-74
2022/08/04 03:37:59;;;;;;;15.10;3.47;;;19.10;99.90;;;;;;5028679;28;20045;-74
2022/08/04 03:40:39;;;;;;;9.27;3.30;;;19.10;99.90;;;;;;5032677;28;20060;-75
2022/08/04 03:43:23;;;;;;;9.95;3.45;;;19.00;99.90;;;;;;5051791;28;20145;-74
2022/08/04 03:46:11;;;;;;;8.93;3.30;;;19.00;99.90;;;;;;5051620;28;20131;-74
2022/08/04 03:49:09;;;;;;;10.45;3.50;;;19.00;99.90;;;;;;5052713;28;20405;-75
2022/08/04 03:54:57;;;;;;;8.60;3.25;;;18.90;99.90;;;;;;5057159;28;20067;-74
2022/08/04 03:57:53;;;;;;;11.00;3.40;;;18.90;99.90;;;;;;5054181;28;20044;-74
2022/08/04 04:00:44;;;;;;;11.32;3.83;;;18.90;99.90;;;;;;5034477;28;20333;-75
2022/08/04 04:03:28;;;;;;;;;;;18.90;99.90;;;;;;5058108;28;20040;-76
2022/08/04 04:06:18;;;;;;;11.35;3.80;;;18.80;99.90;;;;;;5057036;28;19924;-75
2022/08/04 04:09:17;;;;;;;10.55;3.78;;;18.80;99.90;;;;;;5051278;28;20052;-75
2022/08/04 04:11:48;;;;;;;11.88;3.70;;;18.80;99.90;;;;;;5055361;28;20072;-74
2022/08/04 04:14:35;;;;;;;16.58;4.43;;;18.80;99.90;;;;;;5054633;28;20507;-74
2022/08/04 04:17:19;;;;;;;11.32;3.88;;;18.80;99.90;;;;;;5059351;28;20041;-75
2022/08/04 04:20:00;;;;;;;9.77;3.75;;;18.90;99.90;;;;;;5039403;28;20052;-75
2022/08/04 04:22:39;;;;;;;12.50;4.00;;;18.80;99.90;;;;;;5051567;28;20675;-74
2022/08/04 04:25:50;;;;;;;11.35;3.72;;;18.80;99.90;;;;;;5051467;28;20051;-74
2022/08/04 04:28:34;;;;;;;14.57;5.53;;;18.80;99.90;;;;;;5046357;28;20045;-74
2022/08/04 04:31:32;;;;;;;11.25;4.05;;;18.80;99.90;;;;;;5036704;28;20513;-74
2022/08/04 04:34:11;;;;;;;10.38;4.35;;;18.80;99.90;;;;;;5034904;28;20110;-74
2022/08/04 04:36:47;;;;;;;10.10;4.68;;;18.90;99.90;;;;;;5049050;28;20169;-75
2022/08/04 04:39:45;;;;;;;10.35;4.22;;;19.00;99.90;;;;;;5057100;28;20102;-74
2022/08/04 04:42:53;;;;;;;13.88;4.97;;;19.10;99.90;;;;;;5041703;28;20594;-74
2022/08/04 04:45:48;;;;;;;12.75;4.38;;;19.20;99.90;;;;;;5054057;28;20049;-75
2022/08/04 04:48:23;;;;;;;12.52;4.30;;;19.30;99.90;;;;;;5049771;28;20072;-74
2022/08/04 04:51:07;;;;;;;8.68;4.22;;;19.50;99.90;;;;;;5057970;28;20134;-75
2022/08/04 04:54:01;;;;;;;14.35;4.82;;;19.70;99.90;;;;;;5057262;28;20540;-74
2022/08/04 04:56:46;;;;;;;9.85;4.22;;;20.20;99.90;;;;;;5054630;28;20949;-74
2022/08/04 04:59:20;;;;;;;10.13;3.80;;;20.70;99.90;;;;;;5055711;28;20493;-74
2022/08/04 05:02:23;;;;;;;13.50;4.32;;;21.10;99.90;;;;;;5066608;28;20056;-75
2022/08/04 05:05:16;;;;;;;11.48;4.47;;;21.50;99.90;;;;;;5054304;28;20033;-75
2022/08/04 05:08:05;;;;;;;11.50;4.30;;;21.60;99.90;;;;;;5065897;28;20117;-74
2022/08/04 05:10:52;;;;;;;13.30;4.22;;;21.70;99.90;;;;;;5066039;28;20056;-75
2022/08/04 05:13:46;;;;;;;11.38;4.35;;;21.70;99.90;;;;;;5064949;28;20080;-75
2022/08/04 05:16:33;;;;;;;13.82;4.47;;;22.10;99.90;;;;;;5071248;28;20408;-74
2022/08/04 05:19:08;;;;;;;12.73;4.70;;;22.40;99.90;;;;;;5071004;28;20405;-74
2022/08/04 05:21:48;;;;;;;12.15;4.63;;;22.50;99.90;;;;;;5068259;28;20052;-74
2022/08/04 05:24:18;;;;;;;10.27;4.05;;;23.00;99.90;;;;;;5068732;28;20082;-75
2022/08/04 05:26:47;;;;;;;15.40;4.13;;;23.40;99.90;;;;;;5069460;28;20183;-74
2022/08/04 05:29:24;;;;;;;10.90;4.47;;;23.60;99.90;;;;;;5052363;28;20527;-75
2022/08/04 05:31:53;;;;;;;12.77;3.70;;;23.60;99.90;;;;;;5065163;28;20563;-74
2022/08/04 05:34:27;;;;;;;11.65;4.38;;;23.50;99.90;;;;;;5061112;28;20052;-74
2022/08/04 05:37:06;;;;;;;15.25;4.28;;;23.30;99.90;;;;;;5063543;28;20032;-75
2022/08/04 05:39:41;;;;;;;11.27;4.53;;;23.10;99.90;;;;;;5041184;28;20041;-75
2022/08/04 05:42:10;;;;;;;12.82;4.93;;;23.00;99.90;;;;;;5045266;28;20037;-75
2022/08/04 05:44:37;;;;;;;11.98;4.30;;;22.80;99.90;;;;;;5058939;28;20072;-74
2022/08/04 05:47:04;;;;;;;10.73;4.45;;;22.60;99.90;;;;;;5039872;28;20139;-74
2022/08/04 05:49:31;;;;;;;10.93;4.93;;;22.50;99.90;;;;;;5057942;28;20040;-75
2022/08/04 05:52:02;;;;;;;12.60;4.63;;;22.40;99.90;;;;;;5057028;28;20047;-74
2022/08/04 05:54:30;;;;;;;13.40;4.50;;;22.30;99.90;;;;;;5058301;28;20033;-74
2022/08/04 05:56:57;;;;;;;15.32;4.88;;;22.20;99.90;;;;;;5056524;28;20056;-74
2022/08/04 05:59:26;;;;;;;11.48;4.93;;;22.20;99.90;;;;;;5039917;28;20101;-75
2022/08/04 06:01:56;;;;;;;13.07;4.53;;;22.30;99.90;;;;;;5064275;28;20040;-74
2022/08/04 06:04:35;;;;;;;16.73;4.70;;;22.60;99.90;;;;;;5056179;28;20049;-74
2022/08/04 06:07:01;;;;;;;11.60;4.82;;;22.60;99.90;;;;;;5062553;28;20070;-70
2022/08/04 06:09:27;;;;;;;14.23;4.85;;;22.70;99.90;;;;;;5055301;28;20044;-71
2022/08/04 06:11:55;;;;;;;10.73;4.88;;;22.70;99.90;;;;;;5067686;28;20064;-71
2022/08/04 06:14:22;;;;;;;10.40;4.88;;;22.70;99.90;;;;;;5065467;28;20036;-71
2022/08/04 06:16:50;;;;;;;13.45;4.70;;;22.80;99.90;;;;;;5036564;28;20101;-70
2022/08/04 06:19:19;;;;;;;11.50;4.40;;;22.80;99.90;;;;;;5055319;28;20488;-71
2022/08/04 06:21:47;;;;;;;13.05;5.05;;;22.90;99.90;;;;;;5054619;28;20387;-71
2022/08/04 06:24:17;;;;;;;12.10;5.03;;;23.00;99.90;;;;;;5063426;28;20059;-72
2022/08/04 06:26:44;;;;;;;14.85;4.47;;;23.10;99.90;;;;;;5056534;28;20518;-71
2022/08/04 06:29:19;;;;;;;11.40;4.50;;;23.20;99.90;;;;;;5055907;28;20125;-72
2022/08/04 06:31:46;;;;;;;15.52;4.10;;;23.30;99.90;;;;;;5055860;28;20052;-69
2022/08/04 06:34:14;;;;;;;15.70;4.55;;;23.40;99.90;;;;;;5036734;28;20045;-69
2022/08/04 06:36:41;;;;;;;9.63;4.20;;;23.40;99.90;;;;;;5054711;28;20501;-70
2022/08/04 06:39:08;;;;;;;15.65;5.13;;;23.50;99.90;;;;;;5037561;28;20405;-72
2022/08/04 06:41:35;;;;;;;14.60;4.78;;;23.50;99.90;;;;;;5053119;28;20053;-71
2022/08/04 06:44:06;;;;;;;8.93;4.03;;;23.60;99.90;;;;;;5051015;28;21180;-71
2022/08/04 06:46:34;;;;;;;14.80;4.68;;;23.60;99.90;;;;;;5050780;28;20044;-71
2022/08/04 06:49:00;;;;;;;12.68;4.40;;;23.60;99.90;;;;;;5062589;28;20124;-71
2022/08/04 06:51:29;;;;;;;8.95;3.90;;;23.70;99.90;;;;;;5057451;28;20040;-71
2022/08/04 06:53:55;;;;;;;13.40;4.13;;;23.80;99.90;;;;;;5054258;28;20102;-71
2022/08/04 06:56:25;;;;;;;13.88;3.78;;;23.80;99.90;;;;;;5040831;28;20049;-71
2022/08/04 06:58:54;;;;;;;13.77;4.20;;;23.90;99.90;;;;;;5066737;28;20588;-71
2022/08/04 07:01:21;;;;;;;13.80;3.50;;;24.00;99.90;;;;;;5058569;28;20116;-69
2022/08/04 07:03:48;;;;;;;10.65;3.75;;;24.10;99.90;;;;;;5056924;28;20044;-71
2022/08/04 07:06:15;;;;;;;10.80;2.97;;;24.20;99.90;;;;;;5057696;28;20052;-71
2022/08/04 07:08:41;;;;;;;8.07;3.50;;;24.40;99.90;;;;;;5051493;28;20505;-69
2022/08/04 07:11:07;;;;;;;9.15;3.90;;;24.40;99.90;;;;;;5049016;28;20048;-69
2022/08/04 07:13:34;;;;;;;13.80;3.42;;;24.50;99.90;;;;;;5064595;28;20178;-72
2022/08/04 07:16:01;;;;;;;8.27;3.10;;;24.60;99.90;;;;;;5064500;28;20043;-71
2022/08/04 07:18:26;;;;;;;11.88;3.75;;;24.70;99.90;;;;;;5064875;28;20064;-71
2022/08/04 07:20:52;;;;;;;8.90;3.72;;;24.70;99.90;;;;;;5066374;28;20392;-71
2022/08/04 07:23:26;;;;;;;9.88;4.07;;;24.80;99.90;;;;;;5065992;28;21245;-71
2022/08/04 07:25:56;;;;;;;11.07;4.07;;;24.90;99.90;;;;;;5064416;28;20142;-71
2022/08/04 07:28:27;;;;;;;16.85;5.30;;;24.90;99.90;;;;;;5049704;28;20491;-70
2022/08/04 07:30:54;;;;;;;12.60;4.80;;;25.10;99.90;;;;;;5067531;28;20071;-71
2022/08/04 07:33:24;;;;;;;12.18;4.60;;;25.20;99.90;;;;;;5067317;28;20040;-71
2022/08/04 07:35:53;;;;;;;14.53;5.40;;;25.40;99.90;;;;;;5067841;28;20123;-70
2022/08/04 07:38:19;;;;;;;10.50;5.60;;;25.50;99.90;;;;;;5066916;28;20131;-69
2022/08/04 07:40:45;;;;;;;15.90;5.35;;;25.60;99.90;;;;;;5060526;28;20131;-69
2022/08/04 07:43:14;;;;;;;10.23;4.97;;;25.70;99.90;;;;;;5064573;28;20381;-69
2022/08/04 07:45:40;;;;;;;12.65;5.30;;;25.90;99.90;;;;;;5065419;28;20057;-72
2022/08/04 07:48:06;;;;;;;11.70;5.20;;;26.10;99.90;;;;;;5067468;28;20044;-71
2022/08/04 07:50:33;;;;;;;11.50;5.25;;;26.30;99.90;;;;;;5066759;28;20123;-71
2022/08/04 07:53:00;;;;;;;10.77;5.25;;;26.60;99.90;;;;;;5065587;28;20048;-71
2022/08/04 07:55:28;;;;;;;12.95;5.15;;;26.60;99.90;;;;;;5066372;28;20044;-71
2022/08/04 07:57:54;;;;;;;14.80;5.10;;;26.70;99.90;;;;;;5066931;28;20431;-71
2022/08/04 08:00:19;;;;;;;14.15;5.30;;;26.90;99.90;;;;;;5064937;28;20115;-71
2022/08/04 08:02:48;;;;;;;11.30;5.07;;;27.10;99.90;;;;;;5065506;28;20043;-71
2022/08/04 08:05:17;;;;;;;12.45;5.30;;;27.40;99.90;;;;;;5064706;28;20040;-71
2022/08/04 08:07:48;;;;;;;12.95;5.55;;;27.70;99.90;;;;;;5063829;28;20075;-71
2022/08/04 08:10:14;;;;;;;11.80;4.72;;;27.90;99.90;;;;;;5066127;28;20048;-71
2022/08/04 08:12:41;;;;;;;8.85;4.07;;;28.10;99.90;;;;;;5050468;28;20048;-72
2022/08/04 08:15:08;;;;;;;10.73;4.80;;;28.10;99.90;;;;;;5049584;28;20040;-71
2022/08/04 08:17:36;;;;;;;11.45;4.13;;;28.10;99.90;;;;;;5068165;28;20064;-70
2022/08/04 08:20:02;;;;;;;9.55;4.00;;;28.30;99.90;;;;;;5066422;28;20138;-71
2022/08/04 08:22:29;;;;;;;10.82;4.25;;;28.40;99.90;;;;;;5064047;28;20070;-70
2022/08/04 08:24:55;;;;;;;10.68;4.03;;;28.40;99.90;;;;;;5066524;28;20036;-70
2022/08/04 08:27:22;;;;;;;9.00;4.25;;;28.40;99.90;;;;;;5066741;28;20150;-70
2022/08/04 08:29:48;;;;;;;12.77;4.25;;;28.40;99.90;;;;;;5062022;28;20080;-70
2022/08/04 08:32:14;;;;;;;10.93;4.63;;;28.50;99.90;;;;;;5063995;28;20086;-70
2022/08/04 08:34:41;;;;;;;12.05;3.95;;;28.40;99.90;;;;;;5050499;28;20393;-71
2022/08/04 08:37:13;;;;;;;8.38;3.75;;;28.30;99.90;;;;;;5065960;28;20036;-70
2022/08/04 08:39:54;;;;;;;13.10;3.95;;;28.40;99.90;;;;;;5066534;28;20145;-70
2022/08/04 08:42:20;;;;;;;11.68;4.07;;;28.40;99.90;;;;;;5065541;28;20417;-71
2022/08/04 08:44:58;;;;;;;15.80;5.05;;;28.30;99.90;;;;;;5049573;28;20049;-71
2022/08/04 08:48:07;;;;;;;14.27;4.43;;;28.30;99.90;;;;;;5061807;28;20189;-71
2022/08/04 08:51:08;;;;;;;15.77;5.03;;;28.40;99.90;;;;;;5061356;28;20094;-70
2022/08/04 08:54:11;;;;;;;11.55;5.57;;;28.70;99.90;;;;;;5074159;28;20119;-70
2022/08/04 08:57:04;;;;;;;12.85;5.22;;;29.10;99.90;;;;;;5063244;28;20122;-70
2022/08/04 08:59:48;;;;;;;10.45;5.18;;;29.30;99.90;;;;;;5065285;28;20045;-70
2022/08/04 09:02:41;;;;;;;10.30;4.43;;;29.20;99.90;;;;;;5058173;28;20036;-70
2022/08/04 09:05:32;;;;;;;11.57;4.80;;;28.80;99.90;;;;;;5063692;28;20486;-70
2022/08/04 09:08:11;;;;;;;11.15;3.90;;;28.80;99.90;;;;;;5065515;28;20036;-69
2022/08/04 09:10:52;;;;;;;12.25;3.35;;;29.10;99.90;;;;;;5065904;28;21045;-69
2022/08/04 09:13:44;;;;;;;9.77;2.75;;;29.30;99.90;;;;;;5064545;28;20135;-69
2022/08/04 09:16:16;;;;;;;9.57;2.60;;;29.60;99.90;;;;;;5066081;28;20040;-69
2022/08/04 09:19:20;;;;;;;9.25;2.50;;;30.00;99.90;;;;;;5064954;28;20086;-69
2022/08/04 09:21:57;;;;;;;10.88;2.50;;;30.30;99.90;;;;;;5064978;28;20087;-69
2022/08/04 09:24:57;;;;;;;5.80;2.60;;;30.50;99.90;;;;;;5063068;28;20044;-68
2022/08/04 09:27:33;;;;;;;10.13;2.13;;;30.70;99.90;;;;;;5062656;28;20047;-71
2022/08/04 09:30:06;;;;;;;7.57;2.33;;;30.90;99.90;;;;;;5063009;28;20044;-71
2022/08/04 09:33:07;;;;;;;10.93;2.05;;;31.10;99.90;;;;;;5062445;28;20049;-70
2022/08/04 09:35:51;;;;;;;6.53;2.00;;;31.30;99.90;;;;;;5035827;28;20047;-70
2022/08/04 09:38:25;;;;;;;7.18;1.75;;;31.40;99.90;;;;;;5063878;28;20037;-70
2022/08/04 09:40:54;;;;;;;6.18;1.88;;;31.50;99.90;;;;;;5061728;28;20135;-71
2022/08/04 09:43:50;;;;;;;8.05;1.75;;;31.60;99.90;;;;;;5065616;28;20102;-70
2022/08/04 09:46:32;;;;;;;5.80;1.50;;;31.40;99.90;;;;;;5062258;28;20071;-70
2022/08/04 09:49:03;;;;;;;8.55;2.00;;;31.40;99.90;;;;;;5064088;28;20252;-72
2022/08/04 09:51:35;;;;;;;5.70;1.55;;;31.40;99.90;;;;;;5046904;28;20463;-72
2022/08/04 09:54:23;;;;;;;10.25;1.73;;;31.10;99.90;;;;;;5065751;28;20444;-70
2022/08/04 09:57:07;;;;;;;5.00;1.42;;;30.80;99.90;;;;;;5053824;28;20059;-70
2022/08/04 10:00:09;;;;;;;8.85;1.67;;;30.40;99.90;;;;;;5064660;28;20053;-71
2022/08/04 10:02:41;;;;;;;8.98;1.75;;;30.20;99.90;;;;;;5066872;28;20088;-71
2022/08/04 10:05:34;;;;;;;11.23;2.42;;;30.10;99.90;;;;;;5066281;28;20464;-71
2022/08/04 10:08:28;;;;;;;7.85;1.65;;;30.20;99.90;;;;;;5067343;28;20421;-72
2022/08/04 10:11:08;;;;;;;12.75;2.03;;;30.30;99.90;;;;;;5066189;28;20052;-68
2022/08/04 10:14:01;;;;;;;16.27;2.00;;;30.40;99.90;;;;;;5065899;28;20884;-70
2022/08/04 10:16:52;;;;;;;9.38;2.17;;;30.30;99.90;;;;;;5048326;28;20073;-70
2022/08/04 10:19:30;;;;;;;11.35;2.25;;;30.10;99.90;;;;;;5066678;28;20048;-69
2022/08/04 10:22:05;;;;;;;11.48;2.60;;;30.00;99.90;;;;;;5083870;28;20482;-69
2022/08/04 10:25:06;;;;;;;12.02;2.65;;;29.70;99.90;;;;;;5069613;28;20067;-69
2022/08/04 10:27:39;;;;;;;11.27;2.13;;;29.80;99.90;;;;;;5068694;28;20041;-69
2022/08/04 10:30:12;;;;;;;7.28;2.20;;;29.70;99.90;;;;;;5069496;28;20382;-68
2022/08/04 10:32:44;;;;;;;8.57;2.35;;;29.50;99.90;;;;;;5066341;28;20521;-70
2022/08/04 10:35:27;;;;;;;8.98;2.38;;;29.50;99.90;;;;;;5066734;28;20044;-68
2022/08/04 10:38:22;;;;;;;8.98;2.10;;;29.50;99.90;;;;;;5064691;28;20125;-69
2022/08/04 10:40:57;;;;;;;9.75;2.33;;;29.60;99.90;;;;;;5068097;28;20052;-68
2022/08/04 10:43:39;;;;;;;9.05;2.30;;;29.60;99.90;;;;;;5049236;28;20048;-69
2022/08/04 10:46:12;;;;;;;9.73;2.63;;;29.80;99.90;;;;;;5068392;28;20049;-69
2022/08/04 10:48:57;;;;;;;10.95;2.28;;;30.00;99.90;;;;;;5050978;28;20037;-68
2022/08/04 10:51:54;;;;;;;7.25;1.67;;;30.10;99.90;;;;;;5068995;28;20086;-70
2022/08/04 10:54:42;;;;;;;7.75;1.80;;;30.30;99.90;;;;;;5066755;28;20033;-69
2022/08/04 10:57:22;;;;;;;7.05;1.52;;;30.20;99.90;;;;;;5067024;28;20174;-70
2022/08/04 11:00:15;;;;;;;5.60;1.40;;;30.10;99.90;;;;;;5064059;28;20053;-70
2022/08/04 11:02:40;;;;;;;3.95;1.40;;;29.90;99.90;;;;;;5051057;28;20040;-70
2022/08/04 11:05:17;;;;;;;5.68;1.48;;;29.70;99.90;;;;;;5065414;28;20359;-68
2022/08/04 11:07:47;;;;;;;4.63;1.40;;;29.70;99.90;;;;;;5067001;28;20055;-69
2022/08/04 11:10:17;;;;;;;4.75;1.40;;;29.70;99.90;;;;;;5066779;28;20045;-69
2022/08/04 11:12:45;;;;;;;4.88;1.50;;;29.80;99.90;;;;;;5065261;28;20040;-70
2022/08/04 11:15:17;;;;;;;4.10;1.27;;;29.90;99.90;;;;;;5065715;28;20044;-70
2022/08/04 11:17:49;;;;;;;5.13;1.30;;;29.90;99.90;;;;;;5060618;28;20063;-69
2022/08/04 11:20:39;;;;;;;5.15;1.30;;;29.80;99.90;;;;;;5045307;28;20458;-69
2022/08/04 11:23:07;;;;;;;;;;;29.80;99.90;;;;;;5065382;28;20036;-69
2022/08/04 11:25:43;;;;;;;6.60;1.30;;;29.70;99.90;;;;;;5066417;28;19925;-68
2022/08/04 11:28:32;;;;;;;5.72;1.10;;;29.60;99.90;;;;;;5068432;28;20135;-68
2022/08/04 11:31:01;;;;;;;4.03;1.23;;;29.50;99.90;;;;;;5047838;28;20106;-67
2022/08/04 11:33:54;;;;;;;4.97;1.50;;;29.50;99.90;;;;;;5067413;28;20564;-69
2022/08/04 11:36:43;;;;;;;3.60;1.10;;;29.30;99.90;;;;;;5065213;28;20127;-69
2022/08/04 11:39:27;;;;;;;4.13;1.05;;;29.10;99.90;;;;;;5066962;28;20638;-67
2022/08/04 11:42:09;;;;;;;7.25;1.45;;;28.90;99.90;;;;;;5049989;28;20048;-69
2022/08/04 11:44:51;;;;;;;8.43;1.55;;;28.90;99.90;;;;;;5067566;28;20114;-68
2022/08/04 11:47:46;;;;;;;4.00;1.30;;;29.00;99.90;;;;;;5049451;28;20045;-68
2022/08/04 11:50:23;;;;;;;5.53;1.30;;;28.90;99.90;;;;;;5065398;28;20086;-68
2022/08/04 11:52:53;;;;;;;3.60;1.23;;;28.80;99.90;;;;;;5076371;28;20452;-68
2022/08/04 11:55:21;;;;;;;4.32;1.10;;;28.70;99.90;;;;;;5068014;28;20058;-68
2022/08/04 11:57:47;;;;;;;4.90;0.95;;;28.60;99.90;;;;;;5064555;28;20404;-69
2022/08/04 12:00:16;;;;;;;4.07;1.30;;;28.50;99.90;;;;;;5065638;28;20037;-68
2022/08/04 12:03:07;;;;;;;3.42;1.00;;;28.50;99.90;;;;;;5066708;28;20066;-68
2022/08/04 12:05:40;;;;;;;3.67;1.20;;;28.40;99.90;;;;;;5047121;28;20046;-69
2022/08/04 12:08:08;;;;;;;3.47;0.90;;;28.40;99.90;;;;;;5060198;28;20516;-69
2022/08/04 12:11:00;;;;;;;3.95;1.05;;;28.50;99.90;;;;;;5065548;28;20056;-68
2022/08/04 12:14:04;;;;;;;4.50;1.00;;;28.40;99.90;;;;;;5065479;28;20048;-67
2022/08/04 12:16:54;;;;;;;6.22;1.50;;;28.30;99.90;;;;;;5065818;28;20094;-68
2022/08/04 12:19:26;;;;;;;6.07;1.30;;;28.20;99.90;;;;;;5054093;28;20131;-69
2022/08/04 12:21:56;;;;;;;4.50;1.00;;;28.10;99.90;;;;;;5065110;28;20094;-71
2022/08/04 12:24:28;;;;;;;4.88;1.42;;;28.00;99.90;;;;;;5040725;28;20131;-68
2022/08/04 12:27:03;;;;;;;3.38;1.10;;;28.00;99.90;;;;;;5065245;28;20040;-70
2022/08/04 12:29:32;;;;;;;4.63;1.05;;;27.90;99.90;;;;;;5064250;28;20459;-70
2022/08/04 12:32:10;;;;;;;4.63;1.23;;;27.80;99.90;;;;;;5064711;28;20112;-69
2022/08/04 12:34:45;;;;;;;4.82;1.38;;;27.70;99.90;;;;;;5064730;28;20101;-68
2022/08/04 12:37:32;;;;;;;2.70;1.00;;;27.50;99.90;;;;;;5065356;28;20052;-70
2022/08/04 12:40:02;;;;;;;2.88;1.00;;;27.50;99.90;;;;;;5062988;28;20040;-70
2022/08/04 12:42:58;;;;;;;2.70;1.00;;;27.50;99.90;;;;;;5064710;28;20056;-70
2022/08/04 12:45:24;;;;;;;4.03;1.17;;;27.60;99.90;;;;;;5064532;28;20130;-70
2022/08/04 12:47:55;;;;;;;3.22;0.90;;;27.70;99.90;;;;;;5064122;28;20048;-70
2022/08/04 12:50:22;;;;;;;3.88;0.90;;;28.00;99.90;;;;;;5065412;28;20454;-69
2022/08/04 12:52:53;;;;;;;3.42;1.08;;;28.20;99.90;;;;;;5066485;28;20056;-67
2022/08/04 12:55:22;;;;;;;4.45;1.00;;;28.30;99.90;;;;;;5065015;28;20039;-69
2022/08/04 12:57:51;;;;;;;5.43;0.80;;;28.40;99.90;;;;;;5065421;28;20052;-71
2022/08/04 13:00:32;;;;;;;3.28;0.90;;;28.60;99.90;;;;;;5048766;28;20542;-72
2022/08/04 13:03:14;;;;;;;5.93;1.20;;;28.70;99.90;;;;;;5062465;28;20171;-69
2022/08/04 13:05:41;;;;;;;5.07;1.38;;;28.80;99.90;;;;;;5065159;28;20083;-69
2022/08/04 13:08:09;;;;;;;5.15;1.20;;;28.90;99.90;;;;;;5064761;28;20037;-70
2022/08/04 13:10:45;;;;;;;3.28;1.05;;;29.10;99.90;;;;;;5063786;28;20091;-70
2022/08/04 13:13:17;;;;;;;6.13;1.08;;;29.20;99.90;;;;;;5063746;28;20056;-70
2022/08/04 13:15:53;;;;;;;3.42;1.10;;;29.20;99.90;;;;;;5064786;28;20112;-71
2022/08/04 13:18:21;;;;;;;4.85;1.20;;;29.10;99.90;;;;;;5064604;28;20048;-71
2022/08/04 13:20:47;;;;;;;3.35;1.20;;;29.00;99.90;;;;;;5064157;28;20390;-71
2022/08/04 13:23:15;;;;;;;4.70;1.20;;;29.10;99.90;;;;;;5066364;28;20039;-70
2022/08/04 13:25:45;;;;;;;4.65;1.05;;;29.00;99.70;;;;;;5048845;28;20802;-71
2022/08/04 13:28:33;;;;;;;3.85;1.10;;;29.00;99.90;;;;;;5066052;28;20067;-69
2022/08/04 13:31:01;;;;;;;3.25;1.00;;;29.10;99.90;;;;;;5062626;28;20044;-69
2022/08/04 13:33:38;;;;;;;6.35;1.40;;;29.10;99.90;;;;;;5065555;28;20070;-70
2022/08/04 13:36:06;;;;;;;7.18;1.48;;;29.10;99.10;;;;;;5067657;28;20048;-70